Time;durP1;ratioP1;P1;durP2;ratioP2;P2;SDS_P1;SDS_P2;PMS_P1;PMS_P2;Temp;Humidity;BMP_temperature;BMP_pressure;BME280_temperature;BME280_humidity;BME280_pressure;Samples;Min_cycle;Max_cycle;Signal;HPM_P1;HPM_P2
2021/03/16 00:00:24;;;;;;;21.73;4.50;;;5.60;99.90;;;;;;5093580;28;20028;-64
2021/03/16 00:02:50;;;;;;;22.08;4.20;;;5.70;99.90;;;;;;5095696;28;20152;-64
2021/03/16 00:05:15;;;;;;;28.15;3.70;;;5.60;99.90;;;;;;5097216;28;20128;-64
2021/03/16 00:07:41;;;;;;;22.63;3.55;;;5.60;99.90;;;;;;5097218;28;20103;-64
2021/03/16 00:10:07;;;;;;;22.55;4.45;;;5.70;99.90;;;;;;5078459;28;20465;-64
2021/03/16 00:12:32;;;;;;;20.20;4.05;;;5.60;99.90;;;;;;5096852;28;20025;-64
2021/03/16 00:14:58;;;;;;;30.58;4.15;;;5.60;99.90;;;;;;5096702;28;20028;-63
2021/03/16 00:17:24;;;;;;;20.58;3.83;;;5.70;99.90;;;;;;5096714;28;20024;-63
2021/03/16 00:19:49;;;;;;;23.48;4.00;;;5.70;99.90;;;;;;5096691;28;20469;-64
2021/03/16 00:22:15;;;;;;;28.02;4.00;;;5.70;99.90;;;;;;5078638;28;20020;-64
2021/03/16 00:24:41;;;;;;;21.95;4.07;;;5.70;99.90;;;;;;5096865;28;20210;-64
2021/03/16 00:27:06;;;;;;;22.17;3.83;;;5.70;99.90;;;;;;5096563;28;20093;-64
2021/03/16 00:29:32;;;;;;;17.13;3.80;;;5.70;99.90;;;;;;5096495;28;20107;-64
2021/03/16 00:31:58;;;;;;;23.52;4.22;;;5.70;99.90;;;;;;5096176;28;20028;-64
2021/03/16 00:34:23;;;;;;;17.80;3.50;;;5.60;99.90;;;;;;5096035;28;20028;-64
2021/03/16 00:36:49;;;;;;;20.85;3.50;;;5.70;99.90;;;;;;5077952;28;20031;-64
2021/03/16 00:39:15;;;;;;;22.08;4.18;;;5.70;99.90;;;;;;5077884;28;20039;-64
2021/03/16 00:41:41;;;;;;;20.80;3.58;;;5.70;99.90;;;;;;5061081;28;20024;-64
2021/03/16 00:44:07;;;;;;;20.48;3.53;;;5.70;99.90;;;;;;5096210;28;20032;-64
2021/03/16 00:46:33;;;;;;;22.92;3.70;;;5.70;99.90;;;;;;5096442;28;20024;-64
2021/03/16 00:48:59;;;;;;;18.40;3.17;;;5.60;99.90;;;;;;5096406;28;20012;-64
2021/03/16 00:51:24;;;;;;;22.13;3.30;;;5.70;99.90;;;;;;5096348;28;20012;-64
2021/03/16 00:53:50;;;;;;;15.02;2.88;;;5.60;99.90;;;;;;5096327;28;20020;-63
2021/03/16 00:56:15;;;;;;;16.30;3.47;;;5.60;99.90;;;;;;5095663;28;20040;-64
2021/03/16 00:58:41;;;;;;;23.60;2.95;;;5.60;99.90;;;;;;5096217;28;20028;-63
2021/03/16 01:01:07;;;;;;;13.45;3.00;;;5.60;99.90;;;;;;5096155;28;20100;-64
2021/03/16 01:03:33;;;;;;;19.10;3.50;;;5.60;99.90;;;;;;5096119;28;20456;-64
2021/03/16 01:06:01;;;;;;;13.27;2.50;;;5.60;99.90;;;;;;5096080;28;20016;-64
2021/03/16 01:08:26;;;;;;;24.10;3.42;;;5.60;99.90;;;;;;5095996;28;20024;-64
2021/03/16 01:10:53;;;;;;;20.85;2.90;;;5.60;99.90;;;;;;5077792;28;20039;-64
2021/03/16 01:13:19;;;;;;;20.88;3.85;;;5.50;99.90;;;;;;5077200;28;20114;-64
2021/03/16 01:15:45;;;;;;;18.38;3.75;;;5.60;99.90;;;;;;5077151;28;20557;-63
2021/03/16 01:18:11;;;;;;;21.17;3.08;;;5.60;99.90;;;;;;5095572;28;20468;-64
2021/03/16 01:20:37;;;;;;;18.25;3.15;;;5.60;99.90;;;;;;5095780;28;20058;-64
2021/03/16 01:23:03;;;;;;;15.32;2.88;;;5.60;99.90;;;;;;5095483;28;20026;-64
2021/03/16 01:25:29;;;;;;;14.80;3.35;;;5.60;99.90;;;;;;5095706;28;20052;-63
2021/03/16 01:27:55;;;;;;;24.38;3.20;;;5.50;99.90;;;;;;5095645;28;20499;-64
2021/03/16 01:30:22;;;;;;;14.98;3.25;;;5.50;99.90;;;;;;5095634;28;20478;-64
2021/03/16 01:32:47;;;;;;;17.45;2.97;;;5.50;99.90;;;;;;5077627;28;20035;-64
2021/03/16 01:35:15;;;;;;;13.48;2.60;;;5.50;99.90;;;;;;5095147;28;20024;-64
2021/03/16 01:37:42;;;;;;;16.33;3.00;;;5.50;99.90;;;;;;5095179;28;20017;-63
2021/03/16 01:40:10;;;;;;;24.88;3.40;;;5.40;99.90;;;;;;5095419;28;20019;-64
2021/03/16 01:42:36;;;;;;;9.88;2.97;;;5.40;99.90;;;;;;5095337;28;20012;-64
2021/03/16 01:45:09;;;;;;;17.75;3.88;;;5.40;99.90;;;;;;5095340;28;20020;-63
2021/03/16 01:47:35;;;;;;;;;;;5.30;99.90;;;;;;5095712;28;20021;-64
2021/03/16 01:50:02;;;;;;;13.25;2.88;;;5.40;99.90;;;;;;5076910;28;19953;-63
2021/03/16 01:52:28;;;;;;;19.08;3.38;;;5.40;99.90;;;;;;5095184;28;20074;-63
2021/03/16 01:54:55;;;;;;;22.23;3.67;;;5.30;99.90;;;;;;5077047;28;20078;-65
2021/03/16 01:57:23;;;;;;;24.73;4.03;;;5.20;99.90;;;;;;5094837;28;20027;-64
2021/03/16 01:59:50;;;;;;;20.40;3.72;;;5.20;99.90;;;;;;5095023;28;20105;-63
2021/03/16 02:02:15;;;;;;;17.63;3.28;;;5.10;99.90;;;;;;5094999;28;20016;-62
2021/03/16 02:04:41;;;;;;;27.67;4.10;;;5.10;99.90;;;;;;5094367;28;20042;-62
2021/03/16 02:07:18;;;;;;;16.55;2.97;;;5.10;99.90;;;;;;5094660;28;20055;-63
2021/03/16 02:10:09;;;;;;;23.52;4.30;;;5.00;99.90;;;;;;5094580;28;20106;-63
2021/03/16 02:12:44;;;;;;;30.55;4.70;;;4.90;99.90;;;;;;5094077;28;20101;-64
2021/03/16 02:15:15;;;;;;;27.25;4.43;;;5.00;99.90;;;;;;5076840;28;20116;-64
2021/03/16 02:17:43;;;;;;;22.63;4.15;;;5.00;99.90;;;;;;5094762;28;20451;-64
2021/03/16 02:22:49;;;;;;;24.02;3.67;;;4.90;99.90;;;;;;5112318;27;20351;-64
2021/03/16 02:25:55;;;;;;;28.67;4.70;;;4.90;99.90;;;;;;5111713;28;20027;-63
2021/03/16 02:28:34;;;;;;;20.85;4.53;;;4.90;99.90;;;;;;5111531;28;20034;-64
2021/03/16 02:31:02;;;;;;;28.35;5.03;;;5.00;99.90;;;;;;5111888;28;20077;-64
2021/03/16 02:33:32;;;;;;;19.88;4.03;;;4.90;99.90;;;;;;5111523;28;20107;-64
2021/03/16 02:36:00;;;;;;;25.83;4.00;;;4.90;99.90;;;;;;5111495;28;20024;-64
2021/03/16 02:38:30;;;;;;;20.65;4.03;;;5.00;99.90;;;;;;5111718;28;20040;-63
2021/03/16 02:40:57;;;;;;;22.67;4.15;;;5.00;99.90;;;;;;5111623;28;20376;-64
2021/03/16 02:43:24;;;;;;;23.77;4.78;;;4.90;99.90;;;;;;5111376;28;20020;-64
2021/03/16 02:45:51;;;;;;;20.27;3.65;;;4.90;99.90;;;;;;5111614;28;20020;-64
2021/03/16 02:48:19;;;;;;;27.65;4.28;;;5.00;99.90;;;;;;5111569;28;20380;-64
2021/03/16 02:50:46;;;;;;;27.05;4.10;;;5.00;99.90;;;;;;5111242;28;20031;-63
2021/03/16 02:53:13;;;;;;;21.55;3.63;;;5.00;99.90;;;;;;5110459;28;20115;-64
2021/03/16 02:55:43;;;;;;;21.52;4.38;;;5.10;99.90;;;;;;5111404;28;20016;-64
2021/03/16 02:58:09;;;;;;;24.50;3.60;;;5.10;99.90;;;;;;5109828;28;20024;-64
2021/03/16 03:00:36;;;;;;;16.05;3.13;;;5.10;99.90;;;;;;5110957;28;20070;-64
2021/03/16 03:03:04;;;;;;;22.92;4.28;;;5.10;99.90;;;;;;5110725;28;20016;-64
2021/03/16 03:05:32;;;;;;;20.70;3.97;;;5.20;99.90;;;;;;5111279;28;20434;-64
2021/03/16 03:07:57;;;;;;;22.23;3.63;;;5.10;99.90;;;;;;5111210;28;20020;-64
2021/03/16 03:10:24;;;;;;;22.98;3.28;;;5.20;99.90;;;;;;5109327;28;20028;-64
2021/03/16 03:12:52;;;;;;;28.83;4.40;;;5.20;99.90;;;;;;5109280;28;20380;-64
2021/03/16 03:15:18;;;;;;;23.02;4.15;;;5.20;99.90;;;;;;5111054;28;20051;-64
2021/03/16 03:17:43;;;;;;;25.42;4.50;;;5.10;99.90;;;;;;5111003;28;20073;-64
2021/03/16 03:20:10;;;;;;;20.75;3.78;;;5.20;99.90;;;;;;5109160;28;20415;-64
2021/03/16 03:22:43;;;;;;;20.33;3.80;;;5.10;99.90;;;;;;5110178;28;20130;-64
2021/03/16 03:25:31;;;;;;;25.38;3.67;;;5.10;99.90;;;;;;5110874;28;20096;-64
2021/03/16 03:28:03;;;;;;;28.73;4.63;;;5.10;99.90;;;;;;5110839;28;20048;-64
2021/03/16 03:30:29;;;;;;;30.08;4.45;;;5.20;99.90;;;;;;5110271;28;20103;-64
2021/03/16 03:33:00;;;;;;;28.13;4.40;;;5.20;99.90;;;;;;5104180;28;20016;-64
2021/03/16 03:35:29;;;;;;;27.38;3.88;;;5.20;99.90;;;;;;5097097;28;20026;-64
2021/03/16 03:37:56;;;;;;;21.13;4.15;;;5.20;99.90;;;;;;5095884;28;20020;-64
2021/03/16 03:40:24;;;;;;;21.80;4.07;;;5.30;99.90;;;;;;5095800;28;20024;-64
2021/03/16 03:42:54;;;;;;;26.85;3.92;;;5.30;99.90;;;;;;5096942;28;20098;-63
2021/03/16 03:45:20;;;;;;;23.48;5.35;;;5.30;99.90;;;;;;5095764;28;20051;-64
2021/03/16 03:47:48;;;;;;;25.05;3.67;;;5.40;99.90;;;;;;5096564;28;20028;-64
2021/03/16 03:50:14;;;;;;;25.58;3.85;;;5.40;99.90;;;;;;5096800;28;20415;-64
2021/03/16 03:52:41;;;;;;;25.45;3.05;;;5.30;99.90;;;;;;5096767;28;20024;-64
2021/03/16 03:55:08;;;;;;;17.40;3.40;;;5.40;99.90;;;;;;5096415;28;20032;-64
2021/03/16 03:57:35;;;;;;;23.20;4.90;;;5.30;99.90;;;;;;5096093;28;20024;-64
2021/03/16 04:00:01;;;;;;;25.48;3.97;;;5.30;99.90;;;;;;5095174;28;20032;-64
2021/03/16 04:02:27;;;;;;;27.05;3.97;;;5.30;99.90;;;;;;5096516;28;20095;-63
2021/03/16 04:04:55;;;;;;;22.70;3.63;;;5.30;99.90;;;;;;5096216;28;20020;-63
2021/03/16 04:07:21;;;;;;;19.25;4.35;;;5.40;99.90;;;;;;5096208;28;20024;-63
2021/03/16 04:09:47;;;;;;;16.65;3.67;;;5.40;99.90;;;;;;5096175;28;20024;-63
2021/03/16 04:12:14;;;;;;;20.33;3.72;;;5.40;99.90;;;;;;5094908;28;20046;-64
2021/03/16 04:14:40;;;;;;;24.30;3.92;;;5.40;99.90;;;;;;5095781;28;20077;-64
2021/03/16 04:17:06;;;;;;;20.27;3.75;;;5.40;99.90;;;;;;5078431;28;20376;-64
2021/03/16 04:19:32;;;;;;;22.23;3.08;;;5.30;99.90;;;;;;5096222;28;20028;-64
2021/03/16 04:21:58;;;;;;;24.67;4.32;;;5.30;99.90;;;;;;5094338;28;20557;-64
2021/03/16 04:24:24;;;;;;;16.80;5.10;;;5.30;99.90;;;;;;5095600;28;20035;-64
2021/03/16 04:26:50;;;;;;;19.05;3.40;;;5.30;99.90;;;;;;5095541;28;20082;-64
2021/03/16 04:29:16;;;;;;;13.18;3.08;;;5.30;99.90;;;;;;5096040;28;20403;-64
2021/03/16 04:31:41;;;;;;;13.05;3.90;;;5.30;99.90;;;;;;5095964;28;20028;-64
2021/03/16 04:34:07;;;;;;;25.10;4.00;;;5.40;99.90;;;;;;5095663;28;20024;-62
2021/03/16 04:36:33;;;;;;;16.48;3.72;;;5.30;99.90;;;;;;5094463;28;20457;-64
2021/03/16 04:38:58;;;;;;;19.88;4.57;;;5.30;99.90;;;;;;5095841;28;20035;-64
2021/03/16 04:41:24;;;;;;;25.48;4.20;;;5.40;99.90;;;;;;5095737;28;20024;-64
2021/03/16 04:43:49;;;;;;;22.73;3.80;;;5.40;99.90;;;;;;5095322;28;20036;-64
2021/03/16 04:46:16;;;;;;;18.80;3.92;;;5.40;99.90;;;;;;5094895;28;20024;-63
2021/03/16 04:48:42;;;;;;;20.60;3.15;;;5.40;99.90;;;;;;5095649;28;20020;-64
2021/03/16 04:51:07;;;;;;;22.60;3.83;;;5.40;99.90;;;;;;5095340;28;20122;-64
2021/03/16 04:53:33;;;;;;;21.58;4.03;;;5.40;99.90;;;;;;5094446;28;20551;-64
2021/03/16 04:55:59;;;;;;;26.65;4.25;;;5.30;99.90;;;;;;5095573;28;20071;-64
2021/03/16 04:58:24;;;;;;;20.23;3.50;;;5.30;99.90;;;;;;5095500;28;20024;-64
2021/03/16 05:00:50;;;;;;;20.85;3.10;;;5.30;99.90;;;;;;5095396;28;20039;-64
2021/03/16 05:03:15;;;;;;;20.17;3.10;;;5.40;99.90;;;;;;5093697;28;20016;-63
2021/03/16 05:05:41;;;;;;;22.52;3.60;;;5.30;99.90;;;;;;5095325;28;20069;-64
2021/03/16 05:08:06;;;;;;;21.65;3.22;;;5.40;99.90;;;;;;5095333;28;20028;-64
2021/03/16 05:10:32;;;;;;;19.67;3.78;;;5.40;99.90;;;;;;5095235;28;20476;-64
2021/03/16 05:12:57;;;;;;;23.55;3.28;;;5.30;99.90;;;;;;5095242;28;20024;-64
2021/03/16 05:15:23;;;;;;;29.63;3.78;;;5.30;99.90;;;;;;5095158;28;20468;-64
2021/03/16 05:17:48;;;;;;;21.88;3.92;;;5.30;99.90;;;;;;5093318;28;20020;-64
2021/03/16 05:20:14;;;;;;;17.88;3.55;;;5.30;99.90;;;;;;5093913;28;20024;-64
2021/03/16 05:22:40;;;;;;;19.45;3.45;;;5.20;99.90;;;;;;5094251;28;20043;-63
2021/03/16 05:25:07;;;;;;;22.10;4.25;;;5.30;99.90;;;;;;5094996;28;20028;-63
2021/03/16 05:27:32;;;;;;;18.20;3.67;;;5.30;99.90;;;;;;5094687;28;20024;-63
2021/03/16 05:29:58;;;;;;;16.30;3.13;;;5.30;99.90;;;;;;5094928;28;20030;-64
2021/03/16 05:32:24;;;;;;;20.30;3.55;;;5.30;99.90;;;;;;5094301;28;20040;-64
2021/03/16 05:34:49;;;;;;;22.30;3.75;;;5.30;99.90;;;;;;5094551;28;20035;-64
2021/03/16 05:37:15;;;;;;;24.83;3.65;;;5.30;99.90;;;;;;5094763;28;20350;-64
2021/03/16 05:39:40;;;;;;;20.92;3.67;;;5.30;99.90;;;;;;5094745;28;20039;-64
2021/03/16 05:42:06;;;;;;;22.27;4.25;;;5.30;99.90;;;;;;5094640;28;20051;-64
2021/03/16 05:44:32;;;;;;;18.98;3.92;;;5.20;99.90;;;;;;5094661;28;20028;-63
2021/03/16 05:47:00;;;;;;;27.60;4.03;;;5.30;99.90;;;;;;5094653;28;20345;-63
2021/03/16 05:49:26;;;;;;;22.52;4.07;;;5.30;99.90;;;;;;5094585;28;20055;-63
2021/03/16 05:51:53;;;;;;;15.60;3.03;;;5.30;99.90;;;;;;5093986;28;20053;-64
2021/03/16 05:54:18;;;;;;;23.83;4.47;;;5.30;99.90;;;;;;5094526;28;20016;-63
2021/03/16 05:56:44;;;;;;;26.92;3.70;;;5.30;99.90;;;;;;5094178;28;20027;-63
2021/03/16 05:59:10;;;;;;;26.67;4.13;;;5.40;99.90;;;;;;5093905;28;20020;-63
2021/03/16 06:01:36;;;;;;;24.80;5.13;;;5.30;99.90;;;;;;5094061;28;20377;-64
2021/03/16 06:04:02;;;;;;;30.20;5.10;;;5.30;99.90;;;;;;5093834;28;20032;-63
2021/03/16 06:06:31;;;;;;;28.00;4.82;;;5.30;99.90;;;;;;5092601;28;20069;-64
2021/03/16 06:08:56;;;;;;;25.60;4.40;;;5.40;99.90;;;;;;5094313;28;20020;-64
2021/03/16 06:11:23;;;;;;;20.75;3.45;;;5.40;99.90;;;;;;5093971;28;20081;-62
2021/03/16 06:13:52;;;;;;;17.23;3.63;;;5.40;99.90;;;;;;5093061;28;20345;-63
2021/03/16 06:16:19;;;;;;;19.70;3.60;;;5.40;99.90;;;;;;5094228;28;20024;-61
2021/03/16 06:18:46;;;;;;;20.95;3.53;;;5.40;99.90;;;;;;5093885;28;20103;-63
2021/03/16 06:21:18;;;;;;;20.88;3.42;;;5.40;99.90;;;;;;5093732;28;20048;-63
2021/03/16 06:26:31;;;;;;;18.17;3.45;;;5.50;99.90;;;;;;5091889;28;20349;-63
2021/03/16 06:29:08;;;;;;;23.73;3.55;;;5.50;99.90;;;;;;5091310;28;20028;-63
2021/03/16 06:31:34;;;;;;;22.85;4.03;;;5.50;99.90;;;;;;5090238;28;20029;-63
2021/03/16 06:34:00;;;;;;;21.35;3.58;;;5.50;99.90;;;;;;5091470;28;20103;-63
2021/03/16 06:36:26;;;;;;;28.02;3.90;;;5.50;99.90;;;;;;5091490;28;20381;-63
2021/03/16 06:38:52;;;;;;;36.17;4.78;;;5.60;99.90;;;;;;5090866;28;20026;-63
2021/03/16 06:41:20;;;;;;;23.80;3.70;;;5.60;99.90;;;;;;5091376;28;20016;-63
2021/03/16 06:44:04;;;;;;;17.45;4.35;;;5.60;99.90;;;;;;5091055;28;20041;-63
2021/03/16 06:46:39;;;;;;;23.90;3.83;;;5.60;99.90;;;;;;5089940;28;20576;-63
2021/03/16 06:49:21;;;;;;;16.83;4.53;;;5.60;99.90;;;;;;5090992;28;20461;-63
2021/03/16 06:51:48;;;;;;;23.13;4.13;;;5.60;99.90;;;;;;5089404;28;20021;-63
2021/03/16 06:54:17;;;;;;;27.55;4.35;;;5.70;99.90;;;;;;5089631;28;20028;-63
2021/03/16 06:56:54;;;;;;;19.02;3.70;;;5.70;99.90;;;;;;5091084;28;20073;-63
2021/03/16 06:59:23;;;;;;;22.83;3.70;;;5.80;99.90;;;;;;5090749;28;20109;-63
2021/03/16 07:01:49;;;;;;;25.95;4.05;;;5.80;99.90;;;;;;5090915;28;20027;-63
2021/03/16 07:04:17;;;;;;;17.65;3.53;;;5.90;99.90;;;;;;5090270;28;20028;-63
2021/03/16 07:06:44;;;;;;;26.30;4.45;;;6.00;99.90;;;;;;5090554;28;20039;-63
2021/03/16 07:09:11;;;;;;;24.15;4.13;;;6.10;99.90;;;;;;5090573;28;20437;-63
2021/03/16 07:11:40;;;;;;;32.85;4.00;;;6.20;99.90;;;;;;5090734;28;20073;-63
2021/03/16 07:14:06;;;;;;;20.42;3.55;;;6.30;99.90;;;;;;5090734;28;20026;-63
2021/03/16 07:16:34;;;;;;;21.08;3.53;;;6.30;99.90;;;;;;5089707;28;20028;-63
2021/03/16 07:19:04;;;;;;;17.42;3.33;;;6.60;99.90;;;;;;5090303;28;20024;-63
2021/03/16 07:21:38;;;;;;;15.35;3.08;;;6.80;99.90;;;;;;5088867;28;20020;-63
2021/03/16 07:24:08;;;;;;;16.42;3.50;;;6.90;99.90;;;;;;5080331;28;20024;-63
2021/03/16 07:26:34;;;;;;;17.77;3.28;;;6.90;99.90;;;;;;5089494;28;20491;-63
2021/03/16 07:29:04;;;;;;;19.45;3.35;;;7.00;99.90;;;;;;5090364;28;20416;-63
2021/03/16 07:31:32;;;;;;;15.38;2.78;;;6.90;99.90;;;;;;5089260;28;20478;-63
2021/03/16 07:34:02;;;;;;;16.08;3.00;;;6.90;99.90;;;;;;5090299;28;20115;-63
2021/03/16 07:36:27;;;;;;;17.20;3.55;;;6.90;99.90;;;;;;5083552;28;20020;-63
2021/03/16 07:38:54;;;;;;;14.95;3.88;;;6.90;99.90;;;;;;5075571;28;20032;-63
2021/03/16 07:41:20;;;;;;;8.18;2.35;;;7.60;99.90;;;;;;5075932;28;20031;-63
2021/03/16 07:43:45;;;;;;;12.68;2.35;;;8.70;99.90;;;;;;5070302;28;20033;-63
2021/03/16 07:46:15;;;;;;;11.00;1.98;;;8.10;99.90;;;;;;5073346;28;20025;-63
2021/03/16 07:51:31;;;;;;;12.40;2.40;;;7.40;99.90;;;;;;5070215;28;20419;-64
2021/03/16 07:53:59;;;;;;;16.85;2.95;;;7.20;99.90;;;;;;5069907;28;20036;-62
2021/03/16 07:56:27;;;;;;;14.30;2.47;;;7.00;99.90;;;;;;5069045;28;20020;-64
2021/03/16 07:58:53;;;;;;;12.50;2.42;;;7.00;99.90;;;;;;5068114;28;20033;-62
2021/03/16 08:01:19;;;;;;;11.32;3.00;;;7.30;99.90;;;;;;5069120;28;20029;-62
2021/03/16 08:03:45;;;;;;;13.27;3.28;;;7.50;99.90;;;;;;5070075;28;20508;-63
2021/03/16 08:06:29;;;;;;;15.68;3.42;;;7.50;99.90;;;;;;5070386;28;20125;-63
2021/03/16 08:08:55;;;;;;;12.10;3.28;;;8.10;99.90;;;;;;5068412;28;20028;-63
2021/03/16 08:11:34;;;;;;;14.38;3.30;;;8.80;99.90;;;;;;5070441;28;20370;-64
2021/03/16 08:14:04;;;;;;;13.80;2.95;;;9.40;99.90;;;;;;5069530;28;20537;-64
2021/03/16 08:16:41;;;;;;;12.98;3.22;;;8.90;99.90;;;;;;5065077;28;20112;-64
2021/03/16 08:19:12;;;;;;;21.58;3.78;;;8.30;99.90;;;;;;5069350;28;20017;-63
2021/03/16 08:21:40;;;;;;;7.45;2.50;;;7.90;99.90;;;;;;5070016;28;20021;-64
2021/03/16 08:24:15;;;;;;;12.32;2.22;;;7.50;99.90;;;;;;5068825;28;20100;-63
2021/03/16 08:26:43;;;;;;;15.43;3.05;;;7.50;99.90;;;;;;5069829;28;20048;-64
2021/03/16 08:29:09;;;;;;;14.90;2.33;;;7.30;99.90;;;;;;5069840;28;20044;-64
2021/03/16 08:31:36;;;;;;;12.52;2.10;;;7.30;99.90;;;;;;5069747;28;20056;-64
2021/03/16 08:34:16;;;;;;;13.80;2.10;;;7.30;99.90;;;;;;5069103;28;20099;-63
2021/03/16 08:36:42;;;;;;;8.57;2.25;;;7.20;99.90;;;;;;5069885;28;20111;-63
2021/03/16 08:39:09;;;;;;;9.77;2.45;;;7.70;99.90;;;;;;5071665;28;20043;-64
2021/03/16 08:41:34;;;;;;;15.40;2.85;;;8.00;99.90;;;;;;5090062;28;20525;-64
2021/03/16 08:44:00;;;;;;;13.10;2.50;;;7.90;99.90;;;;;;5073942;28;20073;-64
2021/03/16 08:46:34;;;;;;;9.43;2.50;;;7.90;99.90;;;;;;5069244;28;20383;-63
2021/03/16 08:49:00;;;;;;;8.18;2.10;;;7.60;99.90;;;;;;5068944;28;20151;-65
2021/03/16 08:51:27;;;;;;;10.85;2.20;;;7.60;99.90;;;;;;5069596;28;20025;-64
2021/03/16 08:53:53;;;;;;;8.95;2.45;;;7.30;99.90;;;;;;5069721;28;20032;-64
2021/03/16 08:56:20;;;;;;;7.07;2.28;;;7.20;99.90;;;;;;5067832;28;20381;-64
2021/03/16 08:58:46;;;;;;;8.48;2.10;;;7.10;99.90;;;;;;5069769;28;20436;-64
2021/03/16 09:01:12;;;;;;;7.25;1.77;;;7.20;99.90;;;;;;5063791;28;20061;-64
2021/03/16 09:03:37;;;;;;;10.68;2.53;;;7.00;99.90;;;;;;5055627;28;20390;-64
2021/03/16 09:06:03;;;;;;;8.00;1.98;;;7.10;99.90;;;;;;5054617;28;20024;-63
2021/03/16 09:08:29;;;;;;;8.27;2.15;;;7.20;99.90;;;;;;5055753;28;20044;-63
2021/03/16 09:10:54;;;;;;;8.30;1.63;;;7.20;99.90;;;;;;5055179;28;20033;-64
2021/03/16 09:13:32;;;;;;;13.23;2.55;;;7.60;99.90;;;;;;5055455;28;20025;-64
2021/03/16 09:15:57;;;;;;;6.88;2.10;;;8.00;99.90;;;;;;5062438;28;20025;-64
2021/03/16 09:18:23;;;;;;;4.85;1.80;;;8.30;99.90;;;;;;5075992;28;20020;-64
2021/03/16 09:20:49;;;;;;;8.68;2.17;;;8.40;99.90;;;;;;5056141;28;20025;-64
2021/03/16 09:23:14;;;;;;;11.60;2.72;;;8.80;99.90;;;;;;5055376;28;20473;-64
2021/03/16 09:25:42;;;;;;;7.35;2.28;;;9.70;99.90;;;;;;5054460;28;20025;-64
2021/03/16 09:28:12;;;;;;;10.88;2.28;;;10.30;99.90;;;;;;5054884;28;20098;-62
2021/03/16 09:30:44;;;;;;;11.98;2.22;;;11.80;99.90;;;;;;5053953;28;20095;-64
2021/03/16 09:33:12;;;;;;;12.40;4.40;;;12.30;99.90;;;;;;5054416;28;20036;-64
2021/03/16 09:35:38;;;;;;;11.55;2.50;;;12.40;99.90;;;;;;5053305;28;20025;-64
2021/03/16 09:38:05;;;;;;;9.93;2.47;;;12.70;99.90;;;;;;5054258;28;20067;-65
2021/03/16 09:40:43;;;;;;;15.35;2.72;;;13.40;99.90;;;;;;5054529;28;20032;-64
2021/03/16 09:43:28;;;;;;;14.35;2.85;;;13.40;99.90;;;;;;5055131;28;20021;-65
2021/03/16 09:45:59;;;;;;;13.10;2.30;;;13.60;99.90;;;;;;5052103;28;20119;-64
2021/03/16 09:48:25;;;;;;;13.48;2.80;;;13.60;99.90;;;;;;5053746;28;20036;-65
2021/03/16 09:50:52;;;;;;;11.07;2.25;;;12.30;99.90;;;;;;5054381;28;20068;-64
2021/03/16 09:53:19;;;;;;;9.35;1.98;;;11.60;99.90;;;;;;5054616;28;20115;-64
2021/03/16 09:55:54;;;;;;;8.05;2.22;;;11.20;99.90;;;;;;5054508;28;20565;-64
2021/03/16 09:58:21;;;;;;;11.98;2.58;;;10.50;99.90;;;;;;5051756;28;20020;-64
2021/03/16 10:00:48;;;;;;;7.07;1.67;;;11.50;99.90;;;;;;5053979;28;20035;-62
2021/03/16 10:03:16;;;;;;;10.70;2.00;;;13.20;99.90;;;;;;5054763;28;20037;-63
2021/03/16 10:05:42;;;;;;;9.57;2.25;;;13.70;99.90;;;;;;5053060;28;20116;-64
2021/03/16 10:08:08;;;;;;;9.45;1.70;;;14.00;99.90;;;;;;5053544;28;20147;-65
2021/03/16 10:10:39;;;;;;;9.27;1.98;;;13.80;99.90;;;;;;5054134;28;20092;-64
2021/03/16 10:13:07;;;;;;;8.82;1.60;;;12.50;99.90;;;;;;5052246;28;20079;-64
2021/03/16 10:15:39;;;;;;;11.20;2.05;;;11.60;99.90;;;;;;5053223;28;20053;-64
2021/03/16 10:18:07;;;;;;;10.07;1.88;;;11.00;99.90;;;;;;5054359;28;20049;-64
2021/03/16 10:20:36;;;;;;;7.22;1.85;;;11.30;99.90;;;;;;5054326;28;20112;-64
2021/03/16 10:23:08;;;;;;;7.95;2.40;;;11.50;99.90;;;;;;5054241;28;20025;-64
2021/03/16 10:25:35;;;;;;;5.00;1.50;;;11.50;99.90;;;;;;5053157;28;20497;-64
2021/03/16 10:28:04;;;;;;;6.32;1.70;;;13.10;99.90;;;;;;5054082;28;20035;-65
2021/03/16 10:30:33;;;;;;;4.10;1.58;;;12.80;99.90;;;;;;5052314;28;20074;-64
2021/03/16 10:32:59;;;;;;;5.10;1.42;;;13.10;99.90;;;;;;5054413;28;20024;-65
2021/03/16 10:35:25;;;;;;;5.28;1.55;;;13.60;99.90;;;;;;5053527;28;20032;-64
2021/03/16 10:37:50;;;;;;;7.78;1.85;;;13.40;99.90;;;;;;5053847;28;20017;-65
2021/03/16 10:40:17;;;;;;;7.35;1.52;;;13.80;99.90;;;;;;5053728;28;20029;-65
2021/03/16 10:42:42;;;;;;;6.97;1.67;;;13.00;99.90;;;;;;5053747;28;20426;-65
2021/03/16 10:45:08;;;;;;;7.63;1.80;;;11.90;99.90;;;;;;5053404;28;20071;-64
2021/03/16 10:47:34;;;;;;;6.63;1.60;;;11.00;99.90;;;;;;5053541;28;20226;-64
2021/03/16 10:50:00;;;;;;;7.20;1.83;;;10.40;99.90;;;;;;5053605;28;20120;-64
2021/03/16 10:52:25;;;;;;;12.88;2.00;;;10.40;99.90;;;;;;5053675;28;20032;-65
2021/03/16 10:54:51;;;;;;;6.75;1.20;;;10.70;99.90;;;;;;5054009;28;20025;-64
2021/03/16 10:57:16;;;;;;;3.55;1.30;;;11.80;99.90;;;;;;5053118;28;20029;-65
2021/03/16 10:59:42;;;;;;;5.47;1.20;;;12.60;99.90;;;;;;5052064;28;20074;-63
2021/03/16 11:02:08;;;;;;;6.55;1.67;;;13.40;99.90;;;;;;5052633;28;20054;-64
2021/03/16 11:04:36;;;;;;;3.38;1.20;;;13.30;99.90;;;;;;5053567;28;20167;-65
2021/03/16 11:07:02;;;;;;;4.00;1.05;;;13.70;99.90;;;;;;5053439;28;20025;-64
2021/03/16 11:09:28;;;;;;;10.30;1.30;;;14.00;99.90;;;;;;5053830;28;20039;-64
2021/03/16 11:11:53;;;;;;;9.43;1.50;;;13.70;99.90;;;;;;5053079;28;20025;-64
2021/03/16 11:14:19;;;;;;;6.38;1.33;;;13.70;99.90;;;;;;5051687;28;20035;-64
2021/03/16 11:16:44;;;;;;;3.97;1.30;;;13.90;99.90;;;;;;5052858;28;20021;-64
2021/03/16 11:19:10;;;;;;;6.32;1.30;;;15.20;99.90;;;;;;5052181;28;20036;-64
2021/03/16 11:21:35;;;;;;;5.18;1.85;;;14.80;99.90;;;;;;5052386;28;20021;-64
2021/03/16 11:24:01;;;;;;;6.97;1.30;;;14.10;99.90;;;;;;5052112;28;20021;-64
2021/03/16 11:26:27;;;;;;;8.18;1.77;;;12.90;99.90;;;;;;5052939;28;20032;-64
2021/03/16 11:28:53;;;;;;;5.55;1.58;;;11.60;99.90;;;;;;5052179;28;20052;-64
2021/03/16 11:31:20;;;;;;;7.35;1.50;;;10.80;99.90;;;;;;5053927;28;20021;-64
2021/03/16 11:33:45;;;;;;;5.43;1.30;;;10.80;99.90;;;;;;5055588;28;20469;-64
2021/03/16 11:36:11;;;;;;;5.07;1.20;;;11.50;99.90;;;;;;5052774;28;20043;-64
2021/03/16 11:38:36;;;;;;;5.82;1.40;;;11.40;99.90;;;;;;5052087;28;20031;-64
2021/03/16 11:41:03;;;;;;;7.75;1.90;;;11.80;99.90;;;;;;5052419;28;20029;-64
2021/03/16 11:43:29;;;;;;;6.93;1.52;;;11.90;99.90;;;;;;5052649;28;20501;-64
2021/03/16 11:45:54;;;;;;;4.60;1.27;;;12.20;99.90;;;;;;5052488;28;20413;-64
2021/03/16 11:48:20;;;;;;;4.13;1.33;;;11.70;99.90;;;;;;5051909;28;20032;-64
2021/03/16 11:50:46;;;;;;;4.88;1.50;;;11.80;99.90;;;;;;5052122;28;20182;-64
2021/03/16 11:53:13;;;;;;;8.38;2.05;;;11.90;99.90;;;;;;5052120;28;20037;-64
2021/03/16 11:55:39;;;;;;;6.50;1.52;;;12.30;99.90;;;;;;5053017;28;20021;-64
2021/03/16 11:58:12;;;;;;;3.45;1.35;;;12.40;99.90;;;;;;5052533;28;20021;-64
2021/03/16 12:00:57;;;;;;;5.28;1.40;;;12.30;99.90;;;;;;5049882;28;20025;-64
2021/03/16 12:03:22;;;;;;;7.35;1.50;;;12.30;99.90;;;;;;5052437;28;20033;-64
2021/03/16 12:05:48;;;;;;;6.70;1.30;;;12.20;99.90;;;;;;5052735;28;20382;-64
2021/03/16 12:08:14;;;;;;;6.90;1.60;;;12.30;99.90;;;;;;5050898;28;20071;-64
2021/03/16 12:10:40;;;;;;;5.15;1.75;;;12.50;99.90;;;;;;5052348;28;20029;-64
2021/03/16 12:13:06;;;;;;;5.50;1.50;;;12.20;99.90;;;;;;5052459;28;20036;-64
2021/03/16 12:15:53;;;;;;;5.40;1.73;;;11.70;99.90;;;;;;5052341;28;20833;-64
2021/03/16 12:18:18;;;;;;;5.55;1.58;;;11.70;99.90;;;;;;5052921;28;20033;-64
2021/03/16 12:20:44;;;;;;;7.32;1.48;;;11.40;99.90;;;;;;5052982;28;20036;-64
2021/03/16 12:23:09;;;;;;;7.53;1.73;;;11.10;99.90;;;;;;5051943;28;20048;-64
2021/03/16 12:25:35;;;;;;;5.80;1.30;;;10.90;99.90;;;;;;5050974;28;20043;-64
2021/03/16 12:28:02;;;;;;;7.03;1.42;;;10.90;99.90;;;;;;5051102;28;20055;-64
2021/03/16 12:30:27;;;;;;;6.85;1.80;;;11.00;99.90;;;;;;5052218;28;20025;-64
2021/03/16 12:32:53;;;;;;;5.63;1.40;;;10.80;99.90;;;;;;5052495;28;20017;-64
2021/03/16 12:35:18;;;;;;;6.07;1.40;;;11.20;99.90;;;;;;5051987;28;20466;-64
2021/03/16 12:37:44;;;;;;;6.88;1.30;;;11.40;99.90;;;;;;5054838;28;20457;-64
2021/03/16 12:40:11;;;;;;;5.68;1.40;;;11.80;99.90;;;;;;5056723;28;20017;-64
2021/03/16 12:42:37;;;;;;;5.45;1.48;;;12.00;99.90;;;;;;5055871;28;20536;-63
2021/03/16 12:45:08;;;;;;;3.63;1.27;;;12.30;99.90;;;;;;5055299;28;20036;-64
2021/03/16 12:47:34;;;;;;;6.68;1.52;;;12.30;99.90;;;;;;5054434;28;20469;-63
2021/03/16 12:49:59;;;;;;;7.10;1.20;;;11.90;99.90;;;;;;5054843;28;20075;-64
2021/03/16 12:52:25;;;;;;;4.18;1.10;;;12.00;99.90;;;;;;5055044;28;20029;-64
2021/03/16 12:54:50;;;;;;;7.05;1.33;;;12.20;99.90;;;;;;5054788;28;20044;-64
2021/03/16 12:57:18;;;;;;;5.25;1.38;;;11.90;99.90;;;;;;5055372;28;20029;-64